Pagrindinis puslapis
METAR-TAF:

METAR-TAF

Oro uostai :

Doha, Kataras

platuma: 25-15-40N, ilguma: 051-33-54E, Aukštis: 11 m

Dabartinis oras

Ataskaita buvo paskelbta 47 minutes, ne 15:00 UTC
Vėjas 3 kt iš Šiaurės/Šiaurės Rytų, svyruoja nuo Šiaurės ir Rytų/Šiaurės Rytų
Temperatūra 34°C
Drėgmė 53%
Slėgis 1003 hPa
Matomumas 10 km arba daugiau
nėra debesų žemiau 1500 m ir nėra kamuolinių lietaus debesų

METAR: OTBD 231500Z AUTO 03003KT 360V060 CAVOK 34/23 Q1003 NOSIG

Laikas: 18:47 (15:47 UTC)

Prognozė

Ataskaita buvo paskelbta 4 valandos ir 38 minutes, ne 11:09 UTC
Prognozė galioja nuo 23 metu 12 UTC su 24 metu 18 UTC
Vėjas 10 kt iš Šiaurės/Šiaurės Rytų
Matomumas: 8000 m
Laikinai
nuo 23 metu 14 UTC su 23 metu 18 UTC
Vėjas 10 kt iš Šiaurės Vakarų
Laikinai
nuo 23 metu 19 UTC su 24 metu 01 UTC
Vėjas 6 kt iš Vakarų/Pietvakarių
Tapsmas
nuo 24 metu 01 UTC su 24 metu 03 UTC
Vėjas 3 kt nuo kintamojo kryptimis

TAF: OTBD 231109Z 2312/2418 02010KT 8000 NSC TEMPO 2314/2318 32010KT TEMPO 2319/2401 25006KT BECMG 2401/2403 VRB03KT

Orai ataskaitas ir orų prognozės (METAR, TAF).

turimą stotys yra geltonos ir raudonos taškus žemėlapyje.

Perkelti pele per norėdami pamatyti stoties vardą.

Tada spustelėkite, norėdami matyti oro stebėjimo ir prognozės.

Norėdami pakeisti žemėlapį: spustelėkite ant žalios mygtukų su juodo kryžiaus žemyn,; žalią mygtuką su brūkšneliu, jei norite nutolinti; arba žalių rodyklių gretimoms žemėlapius.


METAR-TAF: